Terminal Aerodrome Forecast
Issued by NWS Upton, NY

Home | Current Version | Previous Version | Text Only | Print | Product List | Glossary On
Versions: 1 2 3 4 5 6 7 8 9 10 11 12 13 14 15 16 17 18 19 20 21 22 23 24 25 26 27 28 29 30 31 32 33 34 35 36 37 38
000
FTUS41 KOKX 271745
TAFJFK
TAF
KJFK 271745Z 2718/2824 34008G16KT P6SM FEW025 BKN040
     FM272100 34006KT P6SM VCSH BKN025
      TEMPO 2721/2722 BKN035
     FM280200 35009KT P6SM BKN040
     FM280700 34014KT P6SM BKN120
     FM281000 34014KT P6SM BKN030
     FM281300 34016G23KT P6SM VCSH BKN030
     FM281600 33014G20KT P6SM BKN035=

USA.gov is the U.S. government's official web portal to all federal, state and local government web resources and services.